sensor_id;sensor_type;location;lat;lon;timestamp;P1;durP1;ratioP1;P2;durP2;ratioP2
45694;SDS011;31408;45.468;9.124;2023-01-08T00:02:46;31.88;;;15.63;;
45694;SDS011;31408;45.468;9.124;2023-01-08T00:06:56;29.83;;;13.18;;
45694;SDS011;31408;45.468;9.124;2023-01-08T00:09:21;36.33;;;17.23;;
45694;SDS011;31408;45.468;9.124;2023-01-08T00:11:46;40.40;;;16.75;;
45694;SDS011;31408;45.468;9.124;2023-01-08T00:14:23;34.03;;;16.35;;
45694;SDS011;31408;45.468;9.124;2023-01-08T00:16:54;37.28;;;19.15;;
45694;SDS011;31408;45.468;9.124;2023-01-08T00:19:58;42.65;;;18.85;;
45694;SDS011;31408;45.468;9.124;2023-01-08T00:22:23;40.72;;;16.75;;
45694;SDS011;31408;45.468;9.124;2023-01-08T00:24:58;42.58;;;18.15;;
45694;SDS011;31408;45.468;9.124;2023-01-08T00:27:38;53.90;;;22.60;;
45694;SDS011;31408;45.468;9.124;2023-01-08T00:30:53;48.67;;;20.38;;
45694;SDS011;31408;45.468;9.124;2023-01-08T00:59:17;44.55;;;18.63;;
45694;SDS011;31408;45.468;9.124;2023-01-08T01:01:42;38.40;;;17.25;;
45694;SDS011;31408;45.468;9.124;2023-01-08T01:04:08;57.78;;;20.98;;
45694;SDS011;31408;45.468;9.124;2023-01-08T01:06:33;42.40;;;20.35;;
45694;SDS011;31408;45.468;9.124;2023-01-08T01:09:01;59.20;;;22.42;;
45694;SDS011;31408;45.468;9.124;2023-01-08T01:11:27;49.42;;;22.23;;
45694;SDS011;31408;45.468;9.124;2023-01-08T01:13:53;52.40;;;19.75;;
45694;SDS011;31408;45.468;9.124;2023-01-08T01:16:25;51.28;;;20.98;;
45694;SDS011;31408;45.468;9.124;2023-01-08T01:25:51;45.30;;;21.25;;
45694;SDS011;31408;45.468;9.124;2023-01-08T01:28:20;49.00;;;20.90;;
45694;SDS011;31408;45.468;9.124;2023-01-08T01:30:51;50.75;;;20.60;;
45694;SDS011;31408;45.468;9.124;2023-01-08T01:33:21;40.42;;;17.02;;
45694;SDS011;31408;45.468;9.124;2023-01-08T01:35:47;44.92;;;18.77;;
45694;SDS011;31408;45.468;9.124;2023-01-08T01:38:22;43.42;;;16.55;;
45694;SDS011;31408;45.468;9.124;2023-01-08T01:40:50;41.88;;;17.75;;
45694;SDS011;31408;45.468;9.124;2023-01-08T01:43:31;45.95;;;19.67;;
45694;SDS011;31408;45.468;9.124;2023-01-08T01:46:01;43.50;;;18.15;;
45694;SDS011;31408;45.468;9.124;2023-01-08T01:48:26;41.33;;;18.45;;
45694;SDS011;31408;45.468;9.124;2023-01-08T01:50:55;45.47;;;20.38;;
45694;SDS011;31408;45.468;9.124;2023-01-08T01:53:24;47.63;;;18.60;;
45694;SDS011;31408;45.468;9.124;2023-01-08T01:55:51;50.47;;;20.48;;
45694;SDS011;31408;45.468;9.124;2023-01-08T02:11:35;61.42;;;21.60;;
45694;SDS011;31408;45.468;9.124;2023-01-08T02:14:25;61.50;;;20.73;;
45694;SDS011;31408;45.468;9.124;2023-01-08T02:17:04;54.95;;;20.23;;
45694;SDS011;31408;45.468;9.124;2023-01-08T02:19:48;48.03;;;20.23;;
45694;SDS011;31408;45.468;9.124;2023-01-08T02:24:53;47.03;;;20.60;;
45694;SDS011;31408;45.468;9.124;2023-01-08T02:27:27;50.80;;;18.88;;
45694;SDS011;31408;45.468;9.124;2023-01-08T02:29:56;48.28;;;21.95;;
45694;SDS011;31408;45.468;9.124;2023-01-08T02:32:36;49.08;;;22.02;;
45694;SDS011;31408;45.468;9.124;2023-01-08T02:35:05;43.13;;;20.17;;
45694;SDS011;31408;45.468;9.124;2023-01-08T02:37:43;45.15;;;18.27;;
45694;SDS011;31408;45.468;9.124;2023-01-08T02:42:44;51.03;;;20.55;;
45694;SDS011;31408;45.468;9.124;2023-01-08T02:49:33;34.83;;;17.17;;
45694;SDS011;31408;45.468;9.124;2023-01-08T03:46:06;49.95;;;22.13;;
45694;SDS011;31408;45.468;9.124;2023-01-08T05:45:08;58.33;;;20.77;;
45694;SDS011;31408;45.468;9.124;2023-01-08T06:09:22;61.70;;;21.98;;
45694;SDS011;31408;45.468;9.124;2023-01-08T06:11:48;49.72;;;20.35;;
45694;SDS011;31408;45.468;9.124;2023-01-08T06:14:17;64.47;;;22.67;;
45694;SDS011;31408;45.468;9.124;2023-01-08T06:16:43;53.00;;;19.55;;
45694;SDS011;31408;45.468;9.124;2023-01-08T06:26:04;50.53;;;21.30;;
45694;SDS011;31408;45.468;9.124;2023-01-08T06:28:30;60.75;;;22.77;;
45694;SDS011;31408;45.468;9.124;2023-01-08T06:30:59;58.92;;;23.73;;
45694;SDS011;31408;45.468;9.124;2023-01-08T06:33:27;62.22;;;21.88;;
45694;SDS011;31408;45.468;9.124;2023-01-08T06:35:53;62.35;;;21.50;;
45694;SDS011;31408;45.468;9.124;2023-01-08T06:38:19;64.70;;;22.50;;
45694;SDS011;31408;45.468;9.124;2023-01-08T06:40:47;56.25;;;19.98;;
45694;SDS011;31408;45.468;9.124;2023-01-08T06:43:15;54.28;;;18.70;;
45694;SDS011;31408;45.468;9.124;2023-01-08T06:46:02;61.72;;;20.25;;
45694;SDS011;31408;45.468;9.124;2023-01-08T06:48:28;63.60;;;22.42;;
45694;SDS011;31408;45.468;9.124;2023-01-08T06:50:53;71.65;;;23.27;;
45694;SDS011;31408;45.468;9.124;2023-01-08T06:53:20;53.50;;;19.73;;
45694;SDS011;31408;45.468;9.124;2023-01-08T06:55:45;61.17;;;23.15;;
45694;SDS011;31408;45.468;9.124;2023-01-08T06:58:11;62.58;;;19.20;;
45694;SDS011;31408;45.468;9.124;2023-01-08T07:00:39;40.58;;;18.98;;
45694;SDS011;31408;45.468;9.124;2023-01-08T07:03:11;55.80;;;18.73;;
45694;SDS011;31408;45.468;9.124;2023-01-08T07:05:50;44.53;;;17.33;;
45694;SDS011;31408;45.468;9.124;2023-01-08T07:08:18;51.95;;;20.45;;
45694;SDS011;31408;45.468;9.124;2023-01-08T07:10:46;55.38;;;20.08;;
45694;SDS011;31408;45.468;9.124;2023-01-08T07:13:18;60.13;;;20.13;;
45694;SDS011;31408;45.468;9.124;2023-01-08T07:15:49;60.13;;;19.15;;
45694;SDS011;31408;45.468;9.124;2023-01-08T07:18:15;58.95;;;19.33;;
45694;SDS011;31408;45.468;9.124;2023-01-08T07:20:43;61.45;;;21.73;;
45694;SDS011;31408;45.468;9.124;2023-01-08T07:23:26;57.47;;;20.55;;
45694;SDS011;31408;45.468;9.124;2023-01-08T07:26:05;66.65;;;21.58;;
45694;SDS011;31408;45.468;9.124;2023-01-08T07:28:32;55.28;;;21.30;;
45694;SDS011;31408;45.468;9.124;2023-01-08T07:31:01;63.75;;;23.33;;
45694;SDS011;31408;45.468;9.124;2023-01-08T07:33:27;65.72;;;20.13;;
45694;SDS011;31408;45.468;9.124;2023-01-08T07:35:53;60.90;;;20.65;;
45694;SDS011;31408;45.468;9.124;2023-01-08T07:38:19;68.88;;;22.10;;
45694;SDS011;31408;45.468;9.124;2023-01-08T07:40:45;65.70;;;20.92;;
45694;SDS011;31408;45.468;9.124;2023-01-08T07:43:16;50.88;;;19.48;;
45694;SDS011;31408;45.468;9.124;2023-01-08T07:45:42;67.82;;;21.83;;
45694;SDS011;31408;45.468;9.124;2023-01-08T07:48:07;61.63;;;19.98;;
45694;SDS011;31408;45.468;9.124;2023-01-08T07:50:35;63.92;;;24.17;;
45694;SDS011;31408;45.468;9.124;2023-01-08T07:53:01;65.03;;;23.17;;
45694;SDS011;31408;45.468;9.124;2023-01-08T07:55:27;61.40;;;20.83;;
45694;SDS011;31408;45.468;9.124;2023-01-08T07:57:53;60.35;;;23.33;;
45694;SDS011;31408;45.468;9.124;2023-01-08T08:00:21;53.50;;;21.00;;
45694;SDS011;31408;45.468;9.124;2023-01-08T08:02:47;61.05;;;20.15;;
45694;SDS011;31408;45.468;9.124;2023-01-08T08:05:12;56.15;;;23.10;;
45694;SDS011;31408;45.468;9.124;2023-01-08T08:07:38;68.15;;;21.33;;
45694;SDS011;31408;45.468;9.124;2023-01-08T08:10:03;69.07;;;24.33;;
45694;SDS011;31408;45.468;9.124;2023-01-08T08:12:29;65.03;;;23.27;;
45694;SDS011;31408;45.468;9.124;2023-01-08T08:14:55;72.60;;;23.40;;
45694;SDS011;31408;45.468;9.124;2023-01-08T08:17:21;53.53;;;22.48;;
45694;SDS011;31408;45.468;9.124;2023-01-08T08:19:46;53.15;;;20.75;;
45694;SDS011;31408;45.468;9.124;2023-01-08T08:22:18;62.95;;;22.20;;
45694;SDS011;31408;45.468;9.124;2023-01-08T08:25:08;68.10;;;25.58;;
45694;SDS011;31408;45.468;9.124;2023-01-08T08:27:34;60.88;;;22.40;;
45694;SDS011;31408;45.468;9.124;2023-01-08T08:30:00;65.78;;;25.42;;
45694;SDS011;31408;45.468;9.124;2023-01-08T08:32:25;55.33;;;23.63;;
45694;SDS011;31408;45.468;9.124;2023-01-08T08:34:51;55.13;;;23.63;;
45694;SDS011;31408;45.468;9.124;2023-01-08T08:37:16;51.00;;;21.13;;
45694;SDS011;31408;45.468;9.124;2023-01-08T08:39:41;62.50;;;24.13;;
45694;SDS011;31408;45.468;9.124;2023-01-08T08:42:07;61.40;;;22.63;;
45694;SDS011;31408;45.468;9.124;2023-01-08T08:44:32;55.72;;;21.83;;
45694;SDS011;31408;45.468;9.124;2023-01-08T08:46:58;63.38;;;22.77;;
45694;SDS011;31408;45.468;9.124;2023-01-08T08:49:23;56.30;;;20.50;;
45694;SDS011;31408;45.468;9.124;2023-01-08T08:51:52;49.10;;;20.30;;
45694;SDS011;31408;45.468;9.124;2023-01-08T08:54:43;54.97;;;21.52;;
45694;SDS011;31408;45.468;9.124;2023-01-08T08:57:09;56.45;;;20.73;;
45694;SDS011;31408;45.468;9.124;2023-01-08T08:59:34;51.92;;;20.92;;
45694;SDS011;31408;45.468;9.124;2023-01-08T09:02:00;63.53;;;23.88;;
45694;SDS011;31408;45.468;9.124;2023-01-08T09:04:29;56.13;;;22.13;;
45694;SDS011;31408;45.468;9.124;2023-01-08T09:06:56;55.47;;;24.00;;
45694;SDS011;31408;45.468;9.124;2023-01-08T09:09:48;54.53;;;23.85;;
45694;SDS011;31408;45.468;9.124;2023-01-08T09:12:16;50.17;;;22.20;;
45694;SDS011;31408;45.468;9.124;2023-01-08T09:14:42;56.10;;;22.02;;
45694;SDS011;31408;45.468;9.124;2023-01-08T09:17:07;53.53;;;23.23;;
45694;SDS011;31408;45.468;9.124;2023-01-08T09:19:33;49.60;;;22.02;;
45694;SDS011;31408;45.468;9.124;2023-01-08T09:21:58;46.10;;;21.67;;
45694;SDS011;31408;45.468;9.124;2023-01-08T09:24:25;52.38;;;21.85;;
45694;SDS011;31408;45.468;9.124;2023-01-08T09:26:56;44.78;;;19.55;;
45694;SDS011;31408;45.468;9.124;2023-01-08T09:29:22;48.10;;;22.15;;
45694;SDS011;31408;45.468;9.124;2023-01-08T09:31:47;55.92;;;22.80;;
45694;SDS011;31408;45.468;9.124;2023-01-08T09:34:13;54.65;;;22.98;;
45694;SDS011;31408;45.468;9.124;2023-01-08T09:36:38;42.75;;;19.17;;
45694;SDS011;31408;45.468;9.124;2023-01-08T09:39:04;56.78;;;21.98;;
45694;SDS011;31408;45.468;9.124;2023-01-08T09:41:30;48.13;;;20.98;;
45694;SDS011;31408;45.468;9.124;2023-01-08T09:44:00;46.33;;;19.92;;
45694;SDS011;31408;45.468;9.124;2023-01-08T09:46:28;39.60;;;17.02;;
45694;SDS011;31408;45.468;9.124;2023-01-08T09:48:58;45.25;;;19.45;;
45694;SDS011;31408;45.468;9.124;2023-01-08T09:51:35;40.13;;;17.92;;
45694;SDS011;31408;45.468;9.124;2023-01-08T09:54:01;41.00;;;18.58;;
45694;SDS011;31408;45.468;9.124;2023-01-08T09:56:27;40.58;;;19.80;;
45694;SDS011;31408;45.468;9.124;2023-01-08T09:58:54;40.78;;;18.55;;
45694;SDS011;31408;45.468;9.124;2023-01-08T10:01:56;41.58;;;18.05;;
45694;SDS011;31408;45.468;9.124;2023-01-08T10:04:23;36.42;;;16.95;;
45694;SDS011;31408;45.468;9.124;2023-01-08T10:06:52;42.90;;;17.85;;
45694;SDS011;31408;45.468;9.124;2023-01-08T10:09:29;36.47;;;16.20;;
45694;SDS011;31408;45.468;9.124;2023-01-08T10:11:57;36.85;;;16.67;;
45694;SDS011;31408;45.468;9.124;2023-01-08T10:14:25;42.15;;;17.08;;
45694;SDS011;31408;45.468;9.124;2023-01-08T10:17:00;35.88;;;17.63;;
45694;SDS011;31408;45.468;9.124;2023-01-08T10:19:27;43.30;;;17.83;;
45694;SDS011;31408;45.468;9.124;2023-01-08T10:21:53;34.10;;;14.18;;
45694;SDS011;31408;45.468;9.124;2023-01-08T10:24:32;35.30;;;15.57;;
45694;SDS011;31408;45.468;9.124;2023-01-08T10:27:05;33.40;;;14.63;;
45694;SDS011;31408;45.468;9.124;2023-01-08T10:29:37;38.05;;;16.42;;
45694;SDS011;31408;45.468;9.124;2023-01-08T10:34:50;32.10;;;15.25;;
45694;SDS011;31408;45.468;9.124;2023-01-08T10:37:22;37.78;;;17.88;;
45694;SDS011;31408;45.468;9.124;2023-01-08T10:39:50;30.13;;;14.75;;
45694;SDS011;31408;45.468;9.124;2023-01-08T10:42:17;31.20;;;14.85;;
45694;SDS011;31408;45.468;9.124;2023-01-08T10:44:46;30.17;;;14.85;;
45694;SDS011;31408;45.468;9.124;2023-01-08T10:47:17;29.05;;;13.77;;
45694;SDS011;31408;45.468;9.124;2023-01-08T10:49:43;33.67;;;14.65;;
45694;SDS011;31408;45.468;9.124;2023-01-08T10:52:23;27.27;;;13.75;;
45694;SDS011;31408;45.468;9.124;2023-01-08T10:54:50;33.63;;;14.85;;
45694;SDS011;31408;45.468;9.124;2023-01-08T10:57:19;31.40;;;15.43;;
45694;SDS011;31408;45.468;9.124;2023-01-08T10:59:48;31.90;;;14.13;;
45694;SDS011;31408;45.468;9.124;2023-01-08T11:04:57;31.63;;;14.80;;
45694;SDS011;31408;45.468;9.124;2023-01-08T11:07:23;33.50;;;15.40;;
45694;SDS011;31408;45.468;9.124;2023-01-08T11:09:49;27.67;;;13.55;;
45694;SDS011;31408;45.468;9.124;2023-01-08T11:12:27;27.50;;;12.57;;
45694;SDS011;31408;45.468;9.124;2023-01-08T11:14:54;28.08;;;13.10;;
45694;SDS011;31408;45.468;9.124;2023-01-08T11:17:20;30.08;;;14.57;;
45694;SDS011;31408;45.468;9.124;2023-01-08T11:19:48;29.10;;;13.38;;
45694;SDS011;31408;45.468;9.124;2023-01-08T11:22:20;22.67;;;11.82;;
45694;SDS011;31408;45.468;9.124;2023-01-08T11:24:51;26.52;;;12.02;;
45694;SDS011;31408;45.468;9.124;2023-01-08T11:27:30;26.77;;;12.45;;
45694;SDS011;31408;45.468;9.124;2023-01-08T11:32:39;24.83;;;11.90;;
45694;SDS011;31408;45.468;9.124;2023-01-08T11:37:47;24.95;;;9.50;;
45694;SDS011;31408;45.468;9.124;2023-01-08T11:40:16;19.92;;;10.23;;
45694;SDS011;31408;45.468;9.124;2023-01-08T11:53:53;19.65;;;9.70;;
45694;SDS011;31408;45.468;9.124;2023-01-08T11:59:22;21.58;;;9.95;;
45694;SDS011;31408;45.468;9.124;2023-01-08T12:02:18;20.45;;;9.57;;
45694;SDS011;31408;45.468;9.124;2023-01-08T12:10:42;22.40;;;11.73;;
45694;SDS011;31408;45.468;9.124;2023-01-08T12:13:35;17.90;;;8.27;;
45694;SDS011;31408;45.468;9.124;2023-01-08T12:16:14;16.35;;;7.50;;
45694;SDS011;31408;45.468;9.124;2023-01-08T12:21:24;11.63;;;5.90;;
45694;SDS011;31408;45.468;9.124;2023-01-08T12:29:52;15.60;;;6.97;;
45694;SDS011;31408;45.468;9.124;2023-01-08T12:32:31;14.38;;;7.30;;
45694;SDS011;31408;45.468;9.124;2023-01-08T12:37:38;13.80;;;7.10;;
45694;SDS011;31408;45.468;9.124;2023-01-08T12:40:14;13.25;;;7.95;;
45694;SDS011;31408;45.468;9.124;2023-01-08T12:42:43;13.32;;;7.13;;
45694;SDS011;31408;45.468;9.124;2023-01-08T12:45:17;16.98;;;8.15;;
45694;SDS011;31408;45.468;9.124;2023-01-08T12:47:46;18.35;;;9.25;;
45694;SDS011;31408;45.468;9.124;2023-01-08T12:50:18;15.43;;;7.57;;
45694;SDS011;31408;45.468;9.124;2023-01-08T12:52:49;18.48;;;8.05;;
45694;SDS011;31408;45.468;9.124;2023-01-08T12:55:54;17.38;;;7.55;;
45694;SDS011;31408;45.468;9.124;2023-01-08T13:03:35;21.23;;;8.73;;
45694;SDS011;31408;45.468;9.124;2023-01-08T13:06:05;16.05;;;8.27;;
45694;SDS011;31408;45.468;9.124;2023-01-08T13:08:33;22.00;;;7.95;;
45694;SDS011;31408;45.468;9.124;2023-01-08T13:10:59;15.30;;;8.02;;
45694;SDS011;31408;45.468;9.124;2023-01-08T13:13:26;21.77;;;9.13;;
45694;SDS011;31408;45.468;9.124;2023-01-08T13:49:49;15.80;;;6.63;;
45694;SDS011;31408;45.468;9.124;2023-01-08T13:52:35;15.95;;;7.00;;
45694;SDS011;31408;45.468;9.124;2023-01-08T13:55:11;11.07;;;5.68;;
45694;SDS011;31408;45.468;9.124;2023-01-08T13:57:41;14.98;;;6.60;;
45694;SDS011;31408;45.468;9.124;2023-01-08T14:00:13;13.82;;;7.00;;
